Aérodrome :
LOGIN :

S'inscrire | Disclaimer

   EN    FR    IT 

 










Légende :    VFR   VFR Marginal   IFR   IFR Intensif   IFR Très Intensif
Visi : 
Plafond : 
>= 8 km
>= 3000ft
5 à 8 km
1000 à 3000 ft
1500m à 5 km
500 à 1000 ft
800 à 1500m
200 à 500 ft
< 800m
< 200 ft
Symboles :   Orages  Brouillard  Fortes neiges  Fortes précipitations  Vent > 20 kt
SIGMETs :   Divers  Orages  Givrage  Turbulence  Onde Orograph.  Cendres Volcan.







- Altitude de l'aérodrome : 7 ft
- Code IATA : XHE
- Voir les cartes d'approche


LFTH - Hyeres

DERNIER METAR :
  • 211830Z AUTO 10008KT 070V150 CAVOK 17/13 Q1011 BECMG 26020G30KT

METARs EXPIRÉS :
  • 211800Z AUTO 14006KT 090V190 CAVOK 18/13 Q1011 BECMG 26020G30KT
  • 211730Z AUTO 08007KT 040V110 CAVOK 19/13 Q1011 BECMG 26020G30KT
  • 211700Z AUTO 27014G25KT 250V310 CAVOK 21/11 Q1010 NOSIG
  • 211630Z AUTO 25022KT CAVOK 21/11 Q1010 BECMG 26020G30KT
  • 211600Z AUTO 25023KT CAVOK 22/11 Q1010 BECMG 26020G30KT

TAF TAF LFTH
Valide du 21 à 09h jusqu'au 22 à 09h UTC


210800Z 2109/2209 27010G20KT CAVOK
BECMG 2110/2112 26020G30KT
TEMPO 2112/2117 26025G35KT SCT050
BECMG 2121/2123 VRB03KT
BECMG 2208/2209 28010KT
Pas de NOTAMs connus pour ce terrain.



MET'MAP, la Météo Aéronautique d'un coup d'oeil ! - Copyright ORBIFLY Décembre 2007 - Disclaimer

ORBIFLY MET'MAP TEAM :

Programmation & Développement : Alexandra Zaïnal
Conception & Développement : Baudouin d'Aumeries
Co-Programmation & Développement : Marc-Olivier Méhu
Soutien technique & logistique : Manuel Goepfert

Contact : metmap@orbifly.com




SOURCES & CREDITS :

   NOAA